Time;durP1;ratioP1;P1;durP2;ratioP2;P2;SDS_P1;SDS_P2;PMS_P1;PMS_P2;Temp;Humidity;BMP_temperature;BMP_pressure;BME280_temperature;BME280_humidity;BME280_pressure;Samples;Min_cycle;Max_cycle;Signal;HPM_P1;HPM_P2
2024/04/03 00:02:14;;;;;;;3.50;2.33;;;;;;;9.16;78.78;98816.16;5061866;28;20240;-66
2024/04/03 00:04:41;;;;;;;2.27;2.07;;;;;;;9.20;78.14;98824.66;5050510;28;20615;-64
2024/04/03 00:07:07;;;;;;;2.83;2.13;;;;;;;9.24;78.19;98812.56;5053290;28;20684;-65
2024/04/03 00:09:34;;;;;;;2.77;2.10;;;;;;;9.24;78.52;98803.13;5065440;28;20209;-66
2024/04/03 00:11:59;;;;;;;4.50;2.30;;;;;;;9.25;78.13;98793.72;5064007;28;20202;-65
2024/04/03 00:14:29;;;;;;;3.20;2.00;;;;;;;9.27;77.91;98784.22;5048074;28;20214;-65
2024/04/03 00:16:55;;;;;;;4.60;1.90;;;;;;;9.27;77.98;98803.03;5048314;28;20202;-68
2024/04/03 00:19:22;;;;;;;2.77;1.80;;;;;;;9.27;77.80;98817.63;5064463;28;20237;-66
2024/04/03 00:21:50;;;;;;;4.37;2.10;;;;;;;9.27;78.21;98804.78;5053106;28;20917;-64
2024/04/03 00:24:17;;;;;;;3.80;2.30;;;;;;;9.25;77.71;98791.97;5041267;28;20202;-65
2024/04/03 00:26:43;;;;;;;5.70;2.37;;;;;;;9.20;78.18;98806.66;5049933;28;20210;-64
2024/04/03 00:29:10;;;;;;;5.17;2.27;;;;;;;9.17;78.25;98796.47;5061598;28;20198;-67
2024/04/03 00:31:38;;;;;;;3.97;2.77;;;;;;;9.16;78.24;98813.59;5061114;28;20190;-63
2024/04/03 00:34:06;;;;;;;3.30;2.23;;;;;;;9.14;78.83;98823.09;5049466;28;20591;-64
2024/04/03 00:36:33;;;;;;;3.20;2.13;;;;;;;9.12;77.86;98801.72;5059016;28;20210;-65
2024/04/03 00:39:00;;;;;;;2.70;2.23;;;;;;;9.11;78.30;98827.47;5064645;28;20214;-65
2024/04/03 00:41:29;;;;;;;3.57;2.20;;;;;;;9.12;78.26;98824.84;5053654;28;20210;-63
2024/04/03 00:43:56;;;;;;;4.53;2.33;;;;;;;9.14;78.07;98820.53;5050383;28;20230;-62
2024/04/03 00:46:22;;;;;;;5.30;2.60;;;;;;;9.12;77.95;98816.28;5053239;28;20209;-65
2024/04/03 00:48:53;;;;;;;5.90;2.50;;;;;;;9.14;78.26;98809.41;5053539;28;20264;-65
2024/04/03 00:51:20;;;;;;;3.93;2.27;;;;;;;9.15;78.49;98811.91;5038221;28;20202;-65
2024/04/03 00:53:47;;;;;;;3.33;2.50;;;;;;;9.14;78.01;98815.38;5066313;28;20209;-64
2024/04/03 00:56:13;;;;;;;2.97;2.13;;;;;;;9.15;78.16;98811.09;5065189;28;20576;-63
2024/04/03 00:58:40;;;;;;;4.20;2.40;;;;;;;9.22;77.62;98819.47;5050702;28;20236;-63
2024/04/03 01:01:07;;;;;;;3.53;2.10;;;;;;;9.23;77.62;98801.44;5044284;28;20224;-64
2024/04/03 01:03:34;;;;;;;3.67;2.07;;;;;;;9.19;77.66;98825.53;5049763;28;20230;-63
2024/04/03 01:06:02;;;;;;;4.47;2.50;;;;;;;9.23;77.43;98822.00;5050632;28;20603;-64
2024/04/03 01:08:30;;;;;;;3.83;2.80;;;;;;;9.23;78.08;98818.59;5048772;28;20241;-63
2024/04/03 01:10:57;;;;;;;4.03;2.40;;;;;;;9.22;78.16;98812.63;5063631;28;20202;-63
2024/04/03 01:13:24;;;;;;;6.07;2.57;;;;;;;9.19;78.37;98815.25;5052720;28;20671;-64
2024/04/03 01:15:53;;;;;;;3.60;2.13;;;;;;;9.21;78.11;98828.94;5033156;28;20221;-63
2024/04/03 01:18:20;;;;;;;3.60;1.97;;;;;;;9.19;78.53;98818.66;5058646;28;20254;-63
2024/04/03 01:20:46;;;;;;;4.67;2.40;;;;;;;9.21;78.11;98817.81;5037443;28;20249;-63
2024/04/03 01:23:14;;;;;;;4.40;2.40;;;;;;;9.21;78.45;98822.94;5049765;28;20234;-65
2024/04/03 01:25:45;;;;;;;6.20;2.20;;;;;;;9.18;78.59;98809.28;5038305;28;20209;-66
2024/04/03 01:28:12;;;;;;;4.37;2.60;;;;;;;9.19;78.36;98828.09;5057967;28;20213;-63
2024/04/03 01:30:38;;;;;;;3.70;2.30;;;;;;;9.21;77.92;98828.94;5059473;28;20217;-62
2024/04/03 01:33:05;;;;;;;5.90;2.60;;;;;;;9.22;78.80;98825.47;5057218;28;20198;-63
2024/04/03 01:35:31;;;;;;;2.47;2.03;;;;;;;9.22;78.64;98829.75;5059131;28;20217;-62
2024/04/03 01:38:00;;;;;;;4.00;2.50;;;;;;;9.22;78.31;98829.75;5043937;28;20222;-62
2024/04/03 01:40:26;;;;;;;5.13;3.10;;;;;;;9.21;79.04;98822.94;5037330;28;20271;-61
2024/04/03 01:42:54;;;;;;;4.70;2.30;;;;;;;9.21;78.72;98816.06;5049764;28;20222;-63
2024/04/03 01:45:20;;;;;;;3.70;2.00;;;;;;;9.22;78.82;98816.91;5051841;28;20210;-60
2024/04/03 01:47:48;;;;;;;3.97;2.40;;;;;;;9.22;78.49;98806.63;5054867;28;20606;-60
2024/04/03 01:50:18;;;;;;;3.50;2.27;;;;;;;9.23;78.55;98816.03;5061641;28;20213;-60
2024/04/03 01:52:45;;;;;;;3.30;2.50;;;;;;;9.24;78.48;98815.13;5063878;28;20553;-62
2024/04/03 01:55:11;;;;;;;4.43;2.67;;;;;;;9.25;78.56;98820.25;5065356;28;20217;-62
2024/04/03 01:57:37;;;;;;;4.70;2.47;;;;;;;9.27;78.40;98825.34;5039251;28;20213;-62
2024/04/03 02:00:07;;;;;;;4.97;2.50;;;;;;;9.23;78.36;98814.28;5048194;28;20581;-60
2024/04/03 02:02:33;;;;;;;6.03;2.23;;;;;;;9.23;78.79;98824.56;5049577;28;20210;-60
2024/04/03 02:05:00;;;;;;;3.40;2.27;;;;;;;9.23;78.13;98822.00;5050565;28;20225;-61
2024/04/03 02:07:26;;;;;;;7.30;2.50;;;;;;;9.24;78.42;98817.69;5057549;28;20241;-69
2024/04/03 02:09:53;;;;;;;4.03;2.30;;;;;;;9.25;77.80;98809.97;5049938;28;20213;-61
2024/04/03 02:12:20;;;;;;;4.37;2.47;;;;;;;9.27;78.43;98807.34;5052396;28;20198;-65
2024/04/03 02:14:47;;;;;;;3.87;2.10;;;;;;;9.27;77.91;98821.03;5038448;28;20632;-61
2024/04/03 02:17:17;;;;;;;3.70;2.20;;;;;;;9.26;78.03;98816.78;5059314;28;20209;-61
2024/04/03 02:19:45;;;;;;;2.83;2.17;;;;;;;9.25;77.83;98798.84;5069455;28;20252;-63
2024/04/03 02:22:11;;;;;;;3.60;2.40;;;;;;;9.23;78.30;98809.16;5067706;28;20552;-62
2024/04/03 02:24:38;;;;;;;4.93;2.33;;;;;;;9.22;78.23;98799.75;5066575;28;20279;-60
2024/04/03 02:27:04;;;;;;;2.93;2.20;;;;;;;9.21;77.94;98812.66;5060784;28;20575;-63
2024/04/03 02:29:32;;;;;;;4.77;2.17;;;;;;;9.19;78.49;98804.97;5069402;28;20213;-61
2024/04/03 02:31:58;;;;;;;7.13;2.50;;;;;;;9.21;78.84;98812.66;5049279;28;20213;-61
2024/04/03 02:34:26;;;;;;;3.60;2.27;;;;;;;9.18;79.13;98803.31;5052979;28;20206;-67
2024/04/03 02:36:52;;;;;;;3.73;2.20;;;;;;;9.14;79.34;98811.97;5067497;28;20202;-64
2024/04/03 02:39:19;;;;;;;4.43;2.10;;;;;;;9.12;79.59;98808.59;5063101;28;20220;-60
2024/04/03 02:41:46;;;;;;;4.27;2.43;;;;;;;9.10;79.70;98806.06;5064895;28;20596;-60
2024/04/03 02:44:12;;;;;;;2.97;1.90;;;;;;;9.10;80.05;98803.50;5053092;28;20351;-64
2024/04/03 02:46:38;;;;;;;5.47;2.53;;;;;;;9.09;79.83;98804.34;5055642;28;20316;-61
2024/04/03 02:49:06;;;;;;;4.30;2.17;;;;;;;9.05;79.94;98796.78;5061562;28;20202;-60
2024/04/03 02:51:33;;;;;;;3.67;2.03;;;;;;;9.03;80.09;98799.41;5050208;28;20218;-62
2024/04/03 02:54:00;;;;;;;4.30;2.53;;;;;;;9.04;80.10;98795.94;5063374;28;20216;-62
2024/04/03 02:56:26;;;;;;;8.60;1.90;;;;;;;9.09;80.23;98794.06;5059474;28;20220;-60
2024/04/03 02:58:53;;;;;;;4.20;1.80;;;;;;;9.08;79.33;98792.41;5059867;28;20206;-61
2024/04/03 03:01:19;;;;;;;2.43;1.70;;;;;;;9.09;79.38;98800.94;5058225;28;20340;-61
2024/04/03 03:03:46;;;;;;;4.57;1.70;;;;;;;9.08;78.46;98807.81;5056046;28;20225;-60
2024/04/03 03:06:12;;;;;;;4.17;2.00;;;;;;;9.07;79.21;98807.88;5072487;28;20209;-61
2024/04/03 03:08:40;;;;;;;3.73;1.70;;;;;;;9.04;78.75;98801.06;5060337;28;20248;-62
2024/04/03 03:11:06;;;;;;;2.77;1.50;;;;;;;9.08;78.04;98805.25;5043481;28;20198;-60
2024/04/03 03:13:33;;;;;;;4.50;2.00;;;;;;;9.09;77.89;98791.50;5055448;28;20479;-63
2024/04/03 03:16:01;;;;;;;2.77;2.13;;;;;;;9.10;78.08;98805.22;5064604;28;20202;-63
2024/04/03 03:18:29;;;;;;;2.63;1.80;;;;;;;9.09;78.14;98799.22;5051747;28;20203;-61
2024/04/03 03:20:55;;;;;;;3.93;2.10;;;;;;;9.09;77.77;98796.66;5059417;28;20233;-66
2024/04/03 03:23:22;;;;;;;2.43;1.67;;;;;;;9.07;78.34;98795.88;5060808;28;20307;-61
2024/04/03 03:25:51;;;;;;;1.87;1.67;;;;;;;9.07;78.11;98784.75;5069351;28;20202;-62
2024/04/03 03:28:19;;;;;;;3.67;2.00;;;;;;;9.08;78.26;98791.56;5052687;28;20214;-61
2024/04/03 03:30:46;;;;;;;3.93;2.30;;;;;;;9.08;78.37;98786.41;5044411;28;20300;-61
2024/04/03 03:33:14;;;;;;;2.87;2.20;;;;;;;9.09;78.36;98788.09;5054134;28;20695;-65
2024/04/03 03:35:40;;;;;;;3.40;2.07;;;;;;;9.06;78.10;98773.63;5049977;28;20747;-66
2024/04/03 03:38:07;;;;;;;3.50;2.10;;;;;;;9.05;77.95;98792.47;5050014;28;20217;-63
2024/04/03 03:40:38;;;;;;;2.70;2.27;;;;;;;9.03;78.04;98788.28;5058253;28;20218;-61
2024/04/03 03:43:06;;;;;;;3.97;2.20;;;;;;;9.02;78.52;98790.00;5052626;28;20230;-61
2024/04/03 03:45:33;;;;;;;2.00;1.90;;;;;;;9.01;78.73;98793.44;5061586;28;20206;-60
2024/04/03 03:47:59;;;;;;;1.87;1.77;;;;;;;9.01;79.10;98811.41;5048496;28;20214;-60
2024/04/03 03:53:10;;;;;;;4.60;2.30;;;;;;;8.99;78.99;98797.78;5049651;28;21056;-63
2024/04/03 03:55:37;;;;;;;2.20;2.00;;;;;;;8.96;78.94;98800.44;5046164;28;20214;-62
2024/04/03 03:58:06;;;;;;;3.73;2.30;;;;;;;8.99;79.11;98792.66;5057513;28;20585;-62
2024/04/03 04:00:32;;;;;;;2.70;2.30;;;;;;;9.01;79.07;98795.16;5056050;28;20664;-63
2024/04/03 04:02:59;;;;;;;2.83;2.10;;;;;;;9.00;79.24;98789.19;5041746;28;20209;-61
2024/04/03 04:05:26;;;;;;;2.53;2.20;;;;;;;9.01;78.81;98790.88;5052507;28;20580;-64
2024/04/03 04:07:52;;;;;;;2.97;1.97;;;;;;;9.01;79.42;98793.44;5050945;28;20208;-60
2024/04/03 04:10:19;;;;;;;3.00;2.37;;;;;;;9.00;78.94;98799.47;5057695;28;20217;-62
2024/04/03 04:12:45;;;;;;;3.30;2.43;;;;;;;9.00;79.02;98789.19;5060358;28;20229;-62
2024/04/03 04:15:14;;;;;;;3.47;2.40;;;;;;;9.01;78.22;98777.19;5068167;28;20530;-66
2024/04/03 04:17:40;;;;;;;4.90;2.57;;;;;;;9.02;78.55;98778.88;5038968;28;20209;-63
2024/04/03 04:20:08;;;;;;;3.40;2.13;;;;;;;9.03;78.22;98789.13;5059591;28;20277;-64
2024/04/03 04:22:35;;;;;;;3.60;2.30;;;;;;;9.03;78.55;98783.13;5041366;28;20255;-65
2024/04/03 04:25:05;;;;;;;3.00;2.40;;;;;;;9.03;79.05;98783.97;5070082;28;20226;-67
2024/04/03 04:27:31;;;;;;;3.00;2.27;;;;;;;9.03;78.82;98783.97;5058271;28;20653;-64
2024/04/03 04:29:58;;;;;;;2.50;2.30;;;;;;;9.01;79.29;98784.88;5050823;28;20214;-63
2024/04/03 04:32:25;;;;;;;2.43;2.23;;;;;;;9.02;78.95;98792.56;5039221;28;20268;-62
2024/04/03 04:34:54;;;;;;;2.70;2.50;;;;;;;9.01;79.08;98775.44;5057130;28;20229;-64
2024/04/03 04:37:24;;;;;;;5.17;2.60;;;;;;;9.02;79.16;98790.00;5055786;28;20218;-66
2024/04/03 04:39:51;;;;;;;3.00;2.77;;;;;;;8.99;79.31;98772.09;5051083;28;20194;-66
2024/04/03 04:42:17;;;;;;;3.77;3.40;;;;;;;9.02;79.00;98766.00;5053078;28;20582;-65
2024/04/03 04:44:44;;;;;;;4.87;3.23;;;;;;;9.01;79.05;98780.59;5052599;28;20225;-65
2024/04/03 04:47:11;;;;;;;3.20;2.90;;;;;;;9.02;79.62;98779.72;5052361;28;20210;-64
2024/04/03 04:49:40;;;;;;;4.33;3.50;;;;;;;9.02;79.45;98777.16;5047518;28;20208;-64
2024/04/03 04:52:07;;;;;;;3.50;3.20;;;;;;;9.02;80.10;98781.44;5051291;28;20206;-66
2024/04/03 04:54:33;;;;;;;3.40;3.10;;;;;;;9.02;80.00;98781.44;5041565;28;20292;-64
2024/04/03 04:57:01;;;;;;;3.57;3.13;;;;;;;9.08;79.68;98784.69;5052771;28;20210;-66
2024/04/03 04:59:27;;;;;;;4.53;3.20;;;;;;;9.10;79.76;98787.25;5050921;28;20217;-66
2024/04/03 05:01:54;;;;;;;5.07;3.53;;;;;;;9.11;79.88;98779.47;5055350;28;20206;-64
2024/04/03 05:04:20;;;;;;;3.97;3.67;;;;;;;9.16;79.31;98789.63;5046781;28;20288;-66
2024/04/03 05:06:49;;;;;;;4.37;3.97;;;;;;;9.18;80.03;98777.59;5055436;28;20285;-67
2024/04/03 05:09:15;;;;;;;3.53;3.23;;;;;;;9.20;79.52;98773.25;5051001;28;20640;-66
2024/04/03 05:11:43;;;;;;;5.23;3.67;;;;;;;9.21;79.68;98766.41;5067694;28;20209;-65
2024/04/03 05:14:10;;;;;;;4.23;3.20;;;;;;;9.23;79.66;98780.88;5048799;28;20888;-66
2024/04/03 05:16:37;;;;;;;6.40;4.30;;;;;;;9.20;79.17;98788.66;5077668;28;20243;-64
2024/04/03 05:19:03;;;;;;;3.90;3.37;;;;;;;9.25;80.02;98791.13;5058982;28;20213;-64
2024/04/03 05:21:31;;;;;;;4.20;3.43;;;;;;;9.23;80.20;98775.75;5047372;28;20211;-65
2024/04/03 05:23:58;;;;;;;3.67;3.33;;;;;;;9.27;79.41;98797.91;5046357;28;20229;-66
2024/04/03 05:26:25;;;;;;;4.70;3.27;;;;;;;9.26;79.41;98787.69;5048636;28;20216;-65
2024/04/03 05:28:51;;;;;;;5.53;3.77;;;;;;;9.29;79.95;98785.88;5058002;28;20202;-64
2024/04/03 05:31:18;;;;;;;3.97;3.50;;;;;;;9.29;80.50;98777.31;5053862;28;20206;-66
2024/04/03 05:33:45;;;;;;;3.50;3.20;;;;;;;9.29;81.00;98795.31;5051929;28;20660;-63
2024/04/03 05:36:12;;;;;;;3.27;2.97;;;;;;;9.29;79.96;98782.47;5048752;28;20279;-68
2024/04/03 05:38:38;;;;;;;3.50;2.80;;;;;;;9.31;79.62;98808.94;5056773;28;20209;-67
2024/04/03 05:41:08;;;;;;;3.77;3.47;;;;;;;9.30;79.90;98784.97;5050026;28;20202;-68
2024/04/03 05:43:35;;;;;;;4.63;3.27;;;;;;;9.31;79.13;98803.81;5058461;28;20606;-66
2024/04/03 05:46:02;;;;;;;4.43;2.97;;;;;;;9.32;79.51;98801.22;5050082;28;20213;-67
2024/04/03 05:48:28;;;;;;;6.97;3.17;;;;;;;9.37;78.94;98772.81;5048157;28;20727;-65
2024/04/03 05:51:02;;;;;;;3.07;2.87;;;;;;;9.38;78.17;98788.19;5050805;28;20201;-66
2024/04/03 05:53:29;;;;;;;2.90;2.60;;;;;;;9.39;78.90;98801.91;5051049;28;20208;-66
2024/04/03 05:55:57;;;;;;;3.37;2.70;;;;;;;9.38;78.57;98795.06;5051374;28;20206;-67
2024/04/03 05:58:25;;;;;;;3.50;3.03;;;;;;;9.34;77.86;98778.03;5047482;28;20210;-68
2024/04/03 06:00:52;;;;;;;4.13;2.60;;;;;;;9.37;78.11;98796.78;5046914;28;20210;-70
2024/04/03 06:03:19;;;;;;;2.57;2.37;;;;;;;9.34;78.46;98793.44;5068748;28;20213;-68
2024/04/03 06:05:46;;;;;;;3.33;2.80;;;;;;;9.39;78.22;98813.03;5051769;28;20211;-68
2024/04/03 06:08:12;;;;;;;3.53;2.40;;;;;;;9.40;78.25;98819.00;5048552;28;20758;-67
2024/04/03 06:10:39;;;;;;;4.17;2.80;;;;;;;9.37;78.88;98809.63;5050508;28;20202;-66
2024/04/03 06:13:05;;;;;;;3.13;2.53;;;;;;;9.33;78.80;98805.47;5050708;28;20240;-66
2024/04/03 06:15:34;;;;;;;3.00;2.80;;;;;;;9.35;80.65;98806.28;5059709;28;20201;-67
2024/04/03 06:18:00;;;;;;;3.87;2.67;;;;;;;9.27;81.57;98797.06;5056224;28;20637;-65
2024/04/03 06:20:27;;;;;;;7.87;3.40;;;;;;;9.27;82.27;98827.91;5056023;28;20242;-65
2024/04/03 06:22:53;;;;;;;4.27;2.80;;;;;;;9.23;83.03;98821.16;5044614;28;20309;-65
2024/04/03 06:25:20;;;;;;;5.13;3.10;;;;;;;9.23;83.19;98823.72;5052379;28;20324;-65
2024/04/03 06:27:46;;;;;;;3.17;2.87;;;;;;;9.20;84.09;98832.34;5054883;28;20210;-64
2024/04/03 06:30:14;;;;;;;3.43;3.13;;;;;;;9.17;85.03;98823.03;5061805;28;20216;-64
2024/04/03 06:32:42;;;;;;;3.57;3.27;;;;;;;9.11;84.96;98830.88;5045758;28;20206;-62
2024/04/03 06:35:09;;;;;;;3.40;3.10;;;;;;;9.12;84.73;98824.84;5054985;28;20197;-66
2024/04/03 06:37:35;;;;;;;4.63;3.37;;;;;;;9.15;84.78;98836.78;5035363;28;20265;-60
2024/04/03 06:40:02;;;;;;;6.07;3.20;;;;;;;9.17;84.03;98842.75;5033282;28;20222;-63
2024/04/03 06:42:28;;;;;;;3.17;2.97;;;;;;;9.21;84.70;98828.09;5033633;28;20221;-61
2024/04/03 06:44:55;;;;;;;3.33;3.03;;;;;;;9.22;84.09;98830.59;5038797;28;20214;-64
2024/04/03 06:47:26;;;;;;;3.40;2.90;;;;;;;9.26;84.13;98827.06;5052876;28;20222;-64
2024/04/03 06:49:55;;;;;;;2.97;2.77;;;;;;;9.32;83.17;98838.94;5041770;28;20575;-61
2024/04/03 06:52:22;;;;;;;4.67;3.00;;;;;;;9.43;81.88;98844.63;5033335;28;20217;-63
2024/04/03 06:54:49;;;;;;;4.07;3.33;;;;;;;9.49;81.92;98826.47;5036570;28;20205;-63
2024/04/03 06:57:17;;;;;;;3.77;2.80;;;;;;;9.51;81.43;98831.56;5052910;28;20221;-61
2024/04/03 06:59:43;;;;;;;3.57;2.70;;;;;;;9.52;81.08;98828.94;5052857;28;20205;-60
2024/04/03 07:02:10;;;;;;;2.50;2.30;;;;;;;9.50;80.85;98846.16;5051881;28;20244;-62
2024/04/03 07:04:36;;;;;;;2.63;2.20;;;;;;;9.51;80.36;98847.84;5050725;28;20688;-60
2024/04/03 07:07:08;;;;;;;2.90;2.60;;;;;;;9.52;81.65;98843.53;5053067;28;20205;-63
2024/04/03 07:09:34;;;;;;;3.70;2.67;;;;;;;9.56;81.57;98845.16;5052947;28;20214;-59
2024/04/03 07:12:04;;;;;;;3.03;2.80;;;;;;;9.55;82.33;98852.03;5052073;28;20217;-58
2024/04/03 07:14:30;;;;;;;2.57;2.37;;;;;;;9.47;83.30;98855.69;5052124;28;20614;-61
2024/04/03 07:17:00;;;;;;;3.77;2.80;;;;;;;9.39;84.37;98867.00;5052774;28;20210;-60
2024/04/03 07:19:26;;;;;;;4.43;2.67;;;;;;;9.32;84.26;98859.50;5052460;28;20336;-59
2024/04/03 07:21:53;;;;;;;3.13;2.87;;;;;;;9.30;85.73;98864.66;5052692;28;20306;-58
2024/04/03 07:24:22;;;;;;;3.60;2.93;;;;;;;9.30;85.09;98897.22;5051042;28;20240;-59
2024/04/03 07:26:50;;;;;;;4.10;3.10;;;;;;;9.26;86.25;98857.91;5050438;28;20669;-60
2024/04/03 07:29:18;;;;;;;3.10;2.63;;;;;;;9.26;85.92;98890.47;5063394;28;20221;-62
2024/04/03 07:31:45;;;;;;;4.07;3.23;;;;;;;9.22;86.02;98871.72;5036604;28;20272;-60
2024/04/03 07:34:11;;;;;;;3.53;3.00;;;;;;;9.22;86.40;98874.28;5032942;28;20634;-62
2024/04/03 07:36:41;;;;;;;4.00;3.50;;;;;;;9.28;86.40;98886.13;5043802;28;20210;-60
2024/04/03 07:39:07;;;;;;;4.80;3.17;;;;;;;9.35;85.59;98877.38;5051618;28;20312;-61
2024/04/03 07:41:39;;;;;;;4.03;2.83;;;;;;;9.40;84.43;98878.97;5052407;28;20205;-57
2024/04/03 07:44:06;;;;;;;5.97;3.63;;;;;;;9.40;84.30;98870.41;5042189;28;20231;-67
2024/04/03 07:46:33;;;;;;;3.40;2.83;;;;;;;9.42;84.33;98874.63;5032298;28;20678;-66
2024/04/03 07:48:59;;;;;;;3.37;3.00;;;;;;;9.56;84.01;98884.56;5042836;28;20210;-66
2024/04/03 07:51:26;;;;;;;3.53;2.80;;;;;;;9.84;83.16;98873.53;5069289;28;20301;-63
2024/04/03 07:53:52;;;;;;;3.80;2.70;;;;;;;10.22;81.56;98869.88;5052257;28;20927;-65
2024/04/03 07:56:19;;;;;;;2.83;2.63;;;;;;;10.29;79.68;98880.88;5052437;28;20210;-63
2024/04/03 07:58:46;;;;;;;3.10;2.80;;;;;;;10.21;79.98;98875.94;5043704;28;20689;-67
2024/04/03 08:01:13;;;;;;;3.23;2.70;;;;;;;10.05;79.20;98875.53;5031964;28;20210;-64
2024/04/03 08:03:39;;;;;;;3.53;2.53;;;;;;;10.04;80.59;98889.25;5031127;28;20214;-64
2024/04/03 08:06:07;;;;;;;5.37;2.57;;;;;;;10.24;79.36;98870.69;5039731;28;20961;-64
2024/04/03 08:08:33;;;;;;;5.73;3.07;;;;;;;10.22;79.12;98851.03;5050860;28;20213;-63
2024/04/03 08:11:01;;;;;;;4.97;3.03;;;;;;;10.35;79.69;98860.94;5051786;28;20210;-63
2024/04/03 08:13:30;;;;;;;3.57;2.80;;;;;;;10.84;78.21;98856.03;5051808;28;20220;-64
2024/04/03 08:16:02;;;;;;;3.87;2.47;;;;;;;11.04;75.92;98863.09;5051893;28;20206;-64
2024/04/03 08:18:29;;;;;;;3.00;2.50;;;;;;;10.97;75.45;98870.22;5050821;28;20214;-64
2024/04/03 08:21:04;;;;;;;2.93;2.33;;;;;;;11.18;73.80;98875.56;5051447;28;20241;-63
2024/04/03 08:23:31;;;;;;;5.13;2.77;;;;;;;11.23;74.13;98856.47;5045921;28;20210;-64
2024/04/03 08:26:05;;;;;;;3.10;2.43;;;;;;;11.48;71.94;98890.00;5051419;28;20689;-64
2024/04/03 08:28:31;;;;;;;2.33;2.13;;;;;;;11.31;72.78;98875.09;5050774;28;20213;-63
2024/04/03 08:30:59;;;;;;;3.53;2.03;;;;;;;11.05;73.48;98881.13;5051214;28;20217;-65
2024/04/03 08:33:26;;;;;;;2.33;2.10;;;;;;;10.77;74.58;98865.69;5051612;28;21074;-65
2024/04/03 08:36:01;;;;;;;3.10;2.40;;;;;;;10.64;74.09;98865.22;5050541;28;20217;-63
2024/04/03 08:38:27;;;;;;;2.77;2.43;;;;;;;10.57;74.95;98881.75;5050281;28;20221;-63
2024/04/03 08:40:55;;;;;;;4.60;2.33;;;;;;;10.43;75.92;98865.88;5030397;28;20210;-67
2024/04/03 08:43:23;;;;;;;4.83;2.43;;;;;;;10.40;76.45;98841.03;5031284;28;20658;-62
2024/04/03 08:45:52;;;;;;;4.10;2.50;;;;;;;10.31;76.99;98843.03;5031249;28;20650;-64
2024/04/03 08:48:21;;;;;;;2.60;2.40;;;;;;;10.28;77.25;98881.78;5032605;28;20207;-64
2024/04/03 08:50:49;;;;;;;2.70;2.40;;;;;;;10.25;77.25;98851.81;5050703;28;20210;-63
2024/04/03 08:53:17;;;;;;;3.37;2.67;;;;;;;10.21;77.10;98867.38;5050999;28;20579;-60
2024/04/03 08:55:46;;;;;;;4.77;3.37;;;;;;;10.13;78.36;98877.88;5050717;28;20206;-61
2024/04/03 08:58:12;;;;;;;3.93;3.17;;;;;;;10.14;79.58;98870.09;5037089;28;20214;-61
2024/04/03 09:00:40;;;;;;;5.20;3.00;;;;;;;10.12;80.68;98892.44;5055732;28;20581;-61
2024/04/03 09:03:07;;;;;;;4.07;2.50;;;;;;;10.02;81.54;98926.25;5050869;28;20587;-63
2024/04/03 09:05:34;;;;;;;0.80;0.80;;;;;;;9.57;79.25;98916.25;5050435;28;20229;-59
2024/04/03 09:08:03;;;;;;;1.27;0.93;;;;;;;9.29;78.39;98934.13;5049088;28;20210;-61
2024/04/03 09:10:31;;;;;;;0.80;0.77;;;;;;;9.10;81.00;98933.72;5050278;28;20326;-64
2024/04/03 09:13:08;;;;;;;0.93;0.87;;;;;;;8.95;81.78;98935.75;5048218;28;20206;-60
2024/04/03 09:15:34;;;;;;;1.03;0.67;;;;;;;8.94;82.75;98953.75;5050428;28;20205;-62
2024/04/03 09:18:02;;;;;;;2.07;0.80;;;;;;;8.97;82.89;98947.69;5045920;28;20229;-60
2024/04/03 09:20:28;;;;;;;3.10;1.43;;;;;;;9.02;83.37;98945.88;5049529;28;20234;-60
2024/04/03 09:22:58;;;;;;;7.53;4.27;;;;;;;9.07;82.88;98946.63;5049977;28;20264;-60
2024/04/03 09:25:26;;;;;;;0.60;0.60;;;;;;;9.05;83.60;98954.34;5050141;28;20707;-60
2024/04/03 09:27:59;;;;;;;1.27;0.60;;;;;;;9.08;83.33;98956.00;5035360;28;20224;-60
2024/04/03 09:30:25;;;;;;;0.70;0.67;;;;;;;9.12;82.88;98966.19;5048395;28;20221;-60
2024/04/03 09:32:57;;;;;;;1.23;0.70;;;;;;;9.17;82.38;98974.66;5050620;28;20558;-61
2024/04/03 09:35:28;;;;;;;1.00;0.70;;;;;;;9.15;82.35;98953.25;5035231;28;20214;-59
2024/04/03 09:37:55;;;;;;;0.63;0.63;;;;;;;9.29;81.43;98957.25;5042335;28;20213;-58
2024/04/03 09:40:24;;;;;;;1.47;0.77;;;;;;;9.25;80.95;98971.06;5048879;28;20228;-60
2024/04/03 09:42:58;;;;;;;4.97;1.10;;;;;;;9.35;82.07;98981.09;5048919;28;20206;-60
2024/04/03 09:45:26;;;;;;;0.97;0.80;;;;;;;9.44;80.90;98985.16;5049645;28;20241;-59
2024/04/03 09:47:58;;;;;;;3.23;1.07;;;;;;;9.46;81.25;98988.50;5048829;28;20734;-58
2024/04/03 09:50:34;;;;;;;2.27;1.00;;;;;;;9.45;81.23;98997.13;5048000;28;20665;-60
2024/04/03 09:53:01;;;;;;;1.20;1.10;;;;;;;9.42;81.78;99002.31;5034383;28;20216;-60
2024/04/03 09:55:29;;;;;;;1.37;1.23;;;;;;;9.41;82.01;99004.06;5049833;28;20201;-63
2024/04/03 09:58:01;;;;;;;1.60;1.10;;;;;;;9.37;81.49;99011.88;5049602;28;20206;-61
2024/04/03 10:00:28;;;;;;;2.77;1.23;;;;;;;9.31;81.75;99001.72;5045549;28;20225;-60
2024/04/03 10:02:55;;;;;;;1.23;1.10;;;;;;;9.30;81.73;99025.75;5049694;28;20255;-63
2024/04/03 10:05:33;;;;;;;1.40;1.10;;;;;;;9.27;82.13;99024.09;5057151;28;20233;-68
2024/04/03 10:08:00;;;;;;;2.50;1.40;;;;;;;9.32;81.48;99021.44;5060199;28;20214;-70
2024/04/03 10:10:29;;;;;;;3.57;1.10;;;;;;;9.30;81.36;99028.31;5049327;28;20205;-69
2024/04/03 10:13:00;;;;;;;3.43;1.20;;;;;;;9.32;81.53;99039.44;5050205;28;20621;-67
2024/04/03 10:15:28;;;;;;;1.13;0.93;;;;;;;9.32;80.73;99048.00;5061439;28;20213;-69
2024/04/03 10:18:02;;;;;;;2.27;1.33;;;;;;;9.34;79.77;99042.81;5059289;28;20201;-68
2024/04/03 10:20:39;;;;;;;2.67;1.60;;;;;;;9.34;79.96;99045.38;5065234;28;20229;-69
2024/04/03 10:23:09;;;;;;;1.13;1.03;;;;;;;9.37;80.55;99035.03;5055124;28;20213;-74
2024/04/03 10:25:37;;;;;;;2.67;1.30;;;;;;;9.43;80.90;99035.72;5048119;28;20244;-70
2024/04/03 10:28:10;;;;;;;2.67;1.37;;;;;;;9.45;80.00;99033.13;5051264;28;20568;-68
2024/04/03 10:30:37;;;;;;;1.43;1.10;;;;;;;9.44;80.23;99027.13;5048659;28;20241;-69
2024/04/03 10:33:04;;;;;;;2.37;1.60;;;;;;;9.44;80.85;99047.69;5059507;28;20259;-69
2024/04/03 10:35:31;;;;;;;1.57;1.33;;;;;;;9.45;80.79;99040.81;5063563;28;20217;-67
2024/04/03 10:37:58;;;;;;;2.67;1.73;;;;;;;9.50;80.86;99044.16;5061075;28;20617;-68
2024/04/03 10:40:26;;;;;;;2.73;1.67;;;;;;;9.57;81.12;99034.53;5038880;28;20214;-70
2024/04/03 10:42:52;;;;;;;1.97;1.27;;;;;;;9.65;81.14;99037.81;5049148;28;20244;-71
2024/04/03 10:45:20;;;;;;;1.53;1.40;;;;;;;9.60;79.37;99048.19;5053416;28;20547;-69
2024/04/03 10:47:47;;;;;;;1.53;1.43;;;;;;;9.57;79.03;99053.41;5060609;28;20210;-66
2024/04/03 10:50:14;;;;;;;4.63;1.83;;;;;;;9.63;79.31;99053.25;5056001;28;20222;-70
2024/04/03 10:52:40;;;;;;;3.47;2.27;;;;;;;9.73;79.80;99045.34;5048426;28;20201;-69
2024/04/03 10:55:10;;;;;;;3.03;1.77;;;;;;;9.76;79.78;99058.97;5049774;28;20260;-67
2024/04/03 10:57:38;;;;;;;3.37;1.80;;;;;;;9.77;78.58;99062.38;5045895;28;20222;-70
2024/04/03 11:00:07;;;;;;;3.57;2.10;;;;;;;9.64;78.62;99070.38;5063375;28;20258;-69
2024/04/03 11:02:34;;;;;;;3.57;1.83;;;;;;;9.50;78.47;99072.44;5061746;28;20263;-70
2024/04/03 11:05:03;;;;;;;3.10;1.97;;;;;;;9.39;79.87;99074.41;5050284;28;20240;-67
2024/04/03 11:07:29;;;;;;;3.13;2.00;;;;;;;9.37;80.48;99073.59;5055256;28;20665;-67
2024/04/03 11:09:56;;;;;;;3.00;2.33;;;;;;;9.41;81.34;99080.34;5047765;28;20218;-67
2024/04/03 11:12:21;;;;;;;3.40;2.10;;;;;;;9.39;81.21;99070.09;5045075;28;20581;-66
2024/04/03 11:14:56;;;;;;;2.83;2.30;;;;;;;9.44;81.55;99077.72;5059783;28;20283;-67
2024/04/03 11:17:22;;;;;;;4.97;2.33;;;;;;;9.43;82.39;99070.88;5062285;28;20212;-68
2024/04/03 11:19:51;;;;;;;4.17;2.43;;;;;;;9.36;82.89;99080.47;5049824;28;20242;-66
2024/04/03 11:22:18;;;;;;;3.73;2.47;;;;;;;9.31;84.00;99096.84;5068380;28;20216;-67
2024/04/03 11:24:45;;;;;;;3.70;2.53;;;;;;;9.29;84.03;99093.47;5050022;28;20206;-67
2024/04/03 11:27:12;;;;;;;4.00;2.43;;;;;;;9.28;85.37;99089.19;5056324;28;20229;-67
2024/04/03 11:29:41;;;;;;;4.10;2.47;;;;;;;9.28;86.22;99099.47;5036850;28;20258;-65
2024/04/03 11:32:09;;;;;;;3.30;2.63;;;;;;;9.24;86.65;99101.25;5046733;28;20661;-67
2024/04/03 11:34:35;;;;;;;2.23;2.07;;;;;;;9.14;85.53;99110.91;5033280;28;20673;-66
2024/04/03 11:37:03;;;;;;;2.80;2.30;;;;;;;8.99;85.83;99123.25;5051970;28;20229;-68
2024/04/03 11:39:30;;;;;;;4.07;2.30;;;;;;;8.85;85.25;99128.63;5054222;28;20209;-68
2024/04/03 11:42:01;;;;;;;3.23;2.40;;;;;;;8.70;85.79;99128.03;5065548;28;20661;-66
2024/04/03 11:44:27;;;;;;;4.28;2.70;;;;;;;8.63;86.46;99133.31;5052428;28;20458;-68
2024/04/03 11:46:54;;;;;;;2.90;2.63;;;;;;;8.62;86.91;99131.66;5052470;28;20580;-63